createdAt,value
2023-04-09T00:03:49.671Z,100508.94
2023-04-09T00:08:51.947Z,100497.00
2023-04-09T00:13:54.234Z,100503.53
2023-04-09T00:18:56.679Z,100497.97
2023-04-09T00:23:58.757Z,100495.56
2023-04-09T00:29:01.070Z,100494.91
2023-04-09T00:34:05.092Z,100492.91
2023-04-09T00:39:10.767Z,100507.72
2023-04-09T00:44:13.341Z,100486.97
2023-04-09T00:54:53.216Z,100490.41
2023-04-09T00:59:55.313Z,100494.38
2023-04-09T01:04:57.471Z,100500.41
2023-04-09T01:10:05.214Z,100506.63
2023-04-09T01:15:18.366Z,100493.47
2023-04-09T01:20:37.426Z,100500.31
2023-04-09T01:25:39.411Z,100502.97
2023-04-09T01:30:47.358Z,100494.41
2023-04-09T01:35:50.987Z,100489.44
2023-04-09T01:40:55.652Z,100475.91
2023-04-09T01:46:00.654Z,100484.06
2023-04-09T01:51:02.533Z,100478.84
2023-04-09T01:56:04.545Z,100481.38
2023-04-09T02:01:09.949Z,100489.78
2023-04-09T02:06:21.205Z,100480.56
2023-04-09T02:11:24.775Z,100487.97
2023-04-09T02:16:27.800Z,100493.78
2023-04-09T02:21:29.810Z,100494.63
2023-04-09T02:26:31.687Z,100496.16
2023-04-09T02:31:33.730Z,100505.16
2023-04-09T02:36:35.485Z,100498.59
2023-04-09T02:41:37.284Z,100505.63
2023-04-09T02:46:41.620Z,100491.88
2023-04-09T02:51:43.332Z,100484.34
2023-04-09T02:56:44.996Z,100491.97
2023-04-09T03:01:46.654Z,100485.28
2023-04-09T03:06:48.373Z,100486.34
2023-04-09T03:11:49.995Z,100487.78
2023-04-09T03:16:51.679Z,100479.97
2023-04-09T03:21:53.562Z,100480.94
2023-04-09T03:26:59.679Z,100483.09
2023-04-09T03:32:01.406Z,100483.09
2023-04-09T03:37:03.259Z,100486.81
2023-04-09T03:42:06.643Z,100486.88
2023-04-09T03:47:18.112Z,100489.41
2023-04-09T03:52:19.736Z,100489.41
2023-04-09T03:57:28.730Z,100496.91
2023-04-09T04:02:34.017Z,100497.56
2023-04-09T04:07:39.518Z,100504.16
2023-04-09T04:12:46.054Z,100505.69
2023-04-09T04:17:57.030Z,100508.59
2023-04-09T04:23:19.230Z,100504.81
2023-04-09T04:28:37.869Z,100512.94
2023-04-09T04:33:41.934Z,100517.72
2023-04-09T04:38:48.191Z,100523.03
2023-04-09T04:44:16.171Z,100523.03
2023-04-09T04:49:18.340Z,100524.56
2023-04-09T04:54:22.626Z,100528.38
2023-04-09T04:59:28.950Z,100529.50
2023-04-09T05:04:34.750Z,100521.53
2023-04-09T05:09:37.260Z,100521.09
2023-04-09T05:14:42.230Z,100529.31
2023-04-09T05:19:44.169Z,100536.94
2023-04-09T05:24:47.858Z,100533.41
2023-04-09T05:29:51.196Z,100541.72
2023-04-09T05:34:53.244Z,100543.84
2023-04-09T05:39:56.907Z,100547.09
2023-04-09T05:44:59.539Z,100555.34
2023-04-09T05:50:01.815Z,100566.19
2023-04-09T05:55:03.817Z,100555.28
2023-04-09T06:00:18.275Z,100560.19
2023-04-09T06:05:22.116Z,100559.81
2023-04-09T06:10:24.361Z,100561.22
2023-04-09T06:15:26.317Z,100563.06
2023-04-09T06:20:29.358Z,100562.13
2023-04-09T06:25:31.031Z,100563.72
2023-04-09T06:30:32.782Z,100559.34
2023-04-09T06:35:34.586Z,100566.41
2023-04-09T06:40:38.725Z,100566.38
2023-04-09T06:45:41.119Z,100574.13
2023-04-09T06:50:43.168Z,100574.69
2023-04-09T06:55:44.804Z,100580.91
2023-04-09T07:00:46.695Z,100589.88
2023-04-09T07:05:48.703Z,100585.25
2023-04-09T07:10:50.475Z,100589.59
2023-04-09T07:15:52.154Z,100602.13
2023-04-09T07:20:53.865Z,100608.28
2023-04-09T07:25:55.757Z,100608.53
2023-04-09T07:30:57.656Z,100612.66
2023-04-09T07:35:59.336Z,100615.72
2023-04-09T07:41:01.430Z,100614.00
2023-04-09T07:46:03.252Z,100616.09
2023-04-09T07:51:06.140Z,100607.63
2023-04-09T07:56:08.106Z,100609.78
2023-04-09T08:01:09.711Z,100617.38
2023-04-09T08:06:11.505Z,100621.56
2023-04-09T08:11:13.195Z,100625.09
2023-04-09T08:16:15.544Z,100630.78
2023-04-09T08:21:17.940Z,100633.75
2023-04-09T08:26:19.695Z,100623.88
2023-04-09T08:31:21.549Z,100628.84
2023-04-09T08:36:23.465Z,100630.66
2023-04-09T08:41:26.870Z,100637.91
2023-04-09T08:46:28.739Z,100640.28
2023-04-09T08:51:31.512Z,100631.69
2023-04-09T08:56:33.454Z,100639.19
2023-04-09T09:01:35.138Z,100632.97
2023-04-09T09:06:41.499Z,100639.72
2023-04-09T09:11:48.599Z,100647.47
2023-04-09T09:16:56.773Z,100629.75
2023-04-09T09:22:03.451Z,100636.56
2023-04-09T09:27:05.362Z,100637.97
2023-04-09T09:32:13.526Z,100634.78
2023-04-09T09:37:28.561Z,100633.81
2023-04-09T09:42:30.306Z,100625.22
2023-04-09T09:47:32.550Z,100631.06
2023-04-09T09:52:34.225Z,100642.53
2023-04-09T09:57:42.232Z,100631.59
2023-04-09T10:02:53.408Z,100630.44
2023-04-09T10:07:57.860Z,100634.22
2023-04-09T10:12:59.835Z,100631.44
2023-04-09T10:18:01.986Z,100645.16
2023-04-09T10:23:09.595Z,100629.97
2023-04-09T10:28:18.664Z,100624.13
2023-04-09T10:33:26.929Z,100621.44
2023-04-09T10:38:38.346Z,100614.47
2023-04-09T10:43:40.452Z,100612.25
2023-04-09T10:48:43.838Z,100612.88
2023-04-09T10:53:45.768Z,100607.47
2023-04-09T10:58:47.409Z,100607.53
2023-04-09T11:04:10.589Z,100604.84
2023-04-09T11:09:12.491Z,100606.41
2023-04-09T11:14:20.442Z,100607.88
2023-04-09T11:19:22.125Z,100617.50
2023-04-09T11:24:23.850Z,100611.56
2023-04-09T11:29:25.468Z,100614.97
2023-04-09T11:34:30.570Z,100595.09
2023-04-09T11:39:32.143Z,100608.44
2023-04-09T11:44:33.814Z,100601.22
2023-04-09T11:49:36.036Z,100593.25
2023-04-09T11:54:37.850Z,100596.72
2023-04-09T11:59:39.743Z,100604.28
2023-04-09T12:04:50.678Z,100596.44
2023-04-09T12:09:52.386Z,100591.69
2023-04-09T12:14:56.951Z,100605.06
2023-04-09T12:19:58.524Z,100598.03
2023-04-09T12:25:00.494Z,100600.09
2023-04-09T12:30:02.115Z,100600.66
2023-04-09T12:35:04.346Z,100593.66
2023-04-09T12:40:07.126Z,100597.19
2023-04-09T12:45:15.609Z,100583.94
2023-04-09T12:50:17.354Z,100601.38
2023-04-09T12:55:19.029Z,100591.25
2023-04-09T13:00:20.723Z,100599.66
2023-04-09T13:05:22.367Z,100600.38
2023-04-09T13:10:25.462Z,100602.38
2023-04-09T13:15:27.419Z,100603.50
2023-04-09T13:20:29.628Z,100592.91
2023-04-09T13:25:31.313Z,100596.00
2023-04-09T13:30:32.989Z,100604.06
2023-04-09T13:35:34.728Z,100594.53
2023-04-09T13:40:36.584Z,100578.47
2023-04-09T13:45:38.238Z,100582.81
2023-04-09T13:50:39.853Z,100589.94
2023-04-09T13:55:41.788Z,100595.75
2023-04-09T14:00:43.533Z,100593.66
2023-04-09T14:05:45.558Z,100596.69
2023-04-09T14:10:47.301Z,100600.56
2023-04-09T14:15:50.047Z,100592.34
2023-04-09T14:20:51.914Z,100595.13
2023-04-09T14:25:53.759Z,100578.84
2023-04-09T14:30:55.661Z,100584.72
2023-04-09T14:35:58.729Z,100589.00
2023-04-09T14:41:00.852Z,100582.50
2023-04-09T14:46:04.017Z,100581.44
2023-04-09T14:51:06.799Z,100577.41
2023-04-09T14:56:08.605Z,100578.38
2023-04-09T15:01:10.372Z,100570.69
2023-04-09T15:06:12.441Z,100563.38
2023-04-09T15:11:18.072Z,100574.22
2023-04-09T15:16:28.031Z,100561.75
2023-04-09T15:21:31.726Z,100563.38
2023-04-09T15:26:34.520Z,100560.75
2023-04-09T15:31:36.427Z,100562.34
2023-04-09T15:36:38.252Z,100566.75
2023-04-09T15:41:39.860Z,100577.25
2023-04-09T15:46:41.569Z,100576.31
2023-04-09T15:51:43.249Z,100574.50
2023-04-09T15:56:45.113Z,100586.69
2023-04-09T16:01:46.821Z,100582.09
2023-04-09T16:06:48.441Z,100571.53
2023-04-09T16:11:51.096Z,100582.00
2023-04-09T16:16:53.790Z,100577.50
2023-04-09T16:21:55.739Z,100586.97
2023-04-09T16:26:57.823Z,100576.97
2023-04-09T16:32:00.049Z,100577.72
2023-04-09T16:37:01.971Z,100578.06
2023-04-09T16:42:03.641Z,100583.03
2023-04-09T16:47:05.336Z,100576.34
2023-04-09T16:52:07.161Z,100581.31
2023-04-09T16:57:08.943Z,100573.38
2023-04-09T17:02:10.702Z,100578.47
2023-04-09T17:07:12.525Z,100580.38
2023-04-09T17:12:14.236Z,100577.03
2023-04-09T17:17:16.150Z,100585.31
2023-04-09T17:22:17.951Z,100585.03
2023-04-09T17:27:19.784Z,100588.03
2023-04-09T17:32:21.503Z,100602.13
2023-04-09T17:37:23.188Z,100599.41
2023-04-09T17:42:24.824Z,100604.28
2023-04-09T17:47:26.513Z,100604.06
2023-04-09T17:52:29.214Z,100611.44
2023-04-09T17:57:30.909Z,100614.66
2023-04-09T18:02:33.008Z,100622.91
2023-04-09T18:07:34.951Z,100623.53
2023-04-09T18:12:36.569Z,100621.59
2023-04-09T18:17:38.318Z,100629.84
2023-04-09T18:22:39.956Z,100632.25
2023-04-09T18:27:41.545Z,100632.09
2023-04-09T18:32:43.986Z,100640.34
2023-04-09T18:37:45.859Z,100643.47
2023-04-09T18:42:54.144Z,100656.75
2023-04-09T18:47:55.820Z,100658.19
2023-04-09T18:52:57.454Z,100663.03
2023-04-09T18:57:59.208Z,100673.81
2023-04-09T19:03:01.253Z,100679.53
2023-04-09T19:08:05.301Z,100678.53
2023-04-09T19:13:06.995Z,100684.25
2023-04-09T19:18:08.598Z,100683.31
2023-04-09T19:23:10.312Z,100687.44
2023-04-09T19:28:12.101Z,100691.44
2023-04-09T19:33:13.763Z,100691.31
2023-04-09T19:38:16.319Z,100694.66
2023-04-09T19:43:18.033Z,100695.28
2023-04-09T19:48:19.638Z,100696.25
2023-04-09T19:53:22.859Z,100692.75
2023-04-09T19:58:24.586Z,100690.00
2023-04-09T20:03:26.350Z,100694.03
2023-04-09T20:08:28.242Z,100700.53
2023-04-09T20:13:29.999Z,100696.31
2023-04-09T20:18:32.014Z,100707.03
2023-04-09T20:23:33.661Z,100696.03
2023-04-09T20:28:35.870Z,100701.72
2023-04-09T20:33:37.472Z,100697.53
2023-04-09T20:38:39.051Z,100689.00
2023-04-09T20:43:40.762Z,100704.03
2023-04-09T20:48:43.196Z,100695.53
2023-04-09T20:53:45.436Z,100699.50
2023-04-09T20:58:47.289Z,100696.84
2023-04-09T21:03:49.150Z,100699.19
2023-04-09T21:08:51.745Z,100697.16
2023-04-09T21:13:55.256Z,100704.47
2023-04-09T21:18:57.242Z,100700.84
2023-04-09T21:23:58.936Z,100713.72
2023-04-09T21:29:01.573Z,100711.00
2023-04-09T21:34:03.256Z,100710.66
2023-04-09T21:39:04.967Z,100712.94
2023-04-09T21:44:08.631Z,100712.81
2023-04-09T21:49:10.481Z,100716.94
2023-04-09T21:54:12.095Z,100724.44
2023-04-09T21:59:13.681Z,100721.94
2023-04-09T22:04:15.638Z,100723.50
2023-04-09T22:09:17.242Z,100730.09
2023-04-09T22:14:19.832Z,100726.44
2023-04-09T22:19:21.728Z,100727.81
2023-04-09T22:24:30.358Z,100727.50
2023-04-09T22:29:32.820Z,100718.91
2023-04-09T22:34:34.662Z,100721.97
2023-04-09T22:39:36.502Z,100721.63
2023-04-09T22:44:39.673Z,100725.56
2023-04-09T22:49:41.318Z,100734.34
2023-04-09T22:54:43.270Z,100730.56
2023-04-09T22:59:44.887Z,100727.63
2023-04-09T23:04:46.702Z,100724.63
2023-04-09T23:09:48.482Z,100727.00
2023-04-09T23:14:50.167Z,100723.06
2023-04-09T23:19:54.598Z,100728.84
2023-04-09T23:24:56.692Z,100719.50
2023-04-09T23:29:58.383Z,100723.34
2023-04-09T23:35:01.239Z,100717.22
2023-04-09T23:40:02.936Z,100721.22
2023-04-09T23:45:05.800Z,100721.53
2023-04-09T23:50:08.408Z,100720.53
2023-04-09T23:55:10.755Z,100722.56
